sensor_id;sensor_type;location;lat;lon;timestamp;pressure;altitude;pressure_sealevel;temperature;humidity
68141;BME280;54941;52.220;104.306;2022-09-17T00:01:17;96738.94;;;5.94;82.39
68141;BME280;54941;52.220;104.306;2022-09-17T00:03:44;96740.28;;;6.13;82.50
68141;BME280;54941;52.220;104.306;2022-09-17T00:06:13;96740.72;;;6.24;81.27
68141;BME280;54941;52.220;104.306;2022-09-17T00:08:40;96739.53;;;6.35;81.20
68141;BME280;54941;52.220;104.306;2022-09-17T00:11:08;96741.78;;;6.61;80.88
68141;BME280;54941;52.220;104.306;2022-09-17T00:13:34;96750.81;;;6.71;80.36
68141;BME280;54941;52.220;104.306;2022-09-17T00:16:03;96743.13;;;6.71;80.83
68141;BME280;54941;52.220;104.306;2022-09-17T00:18:29;96744.44;;;6.90;79.51
68141;BME280;54941;52.220;104.306;2022-09-17T00:20:55;96751.75;;;7.30;75.17
68141;BME280;54941;52.220;104.306;2022-09-17T00:23:22;96755.41;;;7.80;75.63
68141;BME280;54941;52.220;104.306;2022-09-17T00:25:48;96753.25;;;8.27;75.20
68141;BME280;54941;52.220;104.306;2022-09-17T00:28:15;96744.56;;;8.64;70.13
68141;BME280;54941;52.220;104.306;2022-09-17T00:30:42;96743.53;;;9.29;66.57
68141;BME280;54941;52.220;104.306;2022-09-17T00:33:13;96745.50;;;9.27;66.85
68141;BME280;54941;52.220;104.306;2022-09-17T00:35:40;96737.47;;;9.71;65.76
68141;BME280;54941;52.220;104.306;2022-09-17T00:38:07;96753.78;;;10.32;62.60
68141;BME280;54941;52.220;104.306;2022-09-17T00:40:34;96753.31;;;11.02;60.40
68141;BME280;54941;52.220;104.306;2022-09-17T00:43:02;96748.00;;;12.14;56.99
68141;BME280;54941;52.220;104.306;2022-09-17T00:45:29;96744.03;;;12.87;55.12
68141;BME280;54941;52.220;104.306;2022-09-17T00:47:58;96747.75;;;12.98;52.91
68141;BME280;54941;52.220;104.306;2022-09-17T00:50:30;96751.72;;;13.00;52.29
68141;BME280;54941;52.220;104.306;2022-09-17T00:52:59;96758.97;;;13.16;52.90
68141;BME280;54941;52.220;104.306;2022-09-17T00:55:28;96754.16;;;13.20;53.12
68141;BME280;54941;52.220;104.306;2022-09-17T00:57:58;96764.66;;;14.29;49.30
68141;BME280;54941;52.220;104.306;2022-09-17T01:00:27;96766.50;;;13.68;49.74
68141;BME280;54941;52.220;104.306;2022-09-17T01:02:54;96752.50;;;13.32;50.75
68141;BME280;54941;52.220;104.306;2022-09-17T01:05:23;96761.13;;;13.20;49.53
68141;BME280;54941;52.220;104.306;2022-09-17T01:08:03;96758.75;;;12.93;50.14
68141;BME280;54941;52.220;104.306;2022-09-17T01:10:57;96763.69;;;12.63;51.94
68141;BME280;54941;52.220;104.306;2022-09-17T01:13:36;96767.53;;;13.17;49.96
68141;BME280;54941;52.220;104.306;2022-09-17T01:16:09;96772.38;;;14.36;47.05
68141;BME280;54941;52.220;104.306;2022-09-17T01:18:49;96773.16;;;14.18;47.86
68141;BME280;54941;52.220;104.306;2022-09-17T01:21:51;96779.34;;;14.83;45.80
68141;BME280;54941;52.220;104.306;2022-09-17T01:30:56;96773.06;;;17.15;40.57
68141;BME280;54941;52.220;104.306;2022-09-17T01:33:29;96780.78;;;16.65;40.47
68141;BME280;54941;52.220;104.306;2022-09-17T01:36:10;96781.81;;;15.43;43.18
68141;BME280;54941;52.220;104.306;2022-09-17T01:38:43;96778.66;;;16.50;41.06
68141;BME280;54941;52.220;104.306;2022-09-17T01:41:20;96786.19;;;16.35;40.96
68141;BME280;54941;52.220;104.306;2022-09-17T01:43:54;96784.91;;;15.86;41.75
68141;BME280;54941;52.220;104.306;2022-09-17T01:46:29;96789.75;;;15.71;42.45
68141;BME280;54941;52.220;104.306;2022-09-17T01:48:59;96791.00;;;15.92;42.30
68141;BME280;54941;52.220;104.306;2022-09-17T01:51:29;96791.94;;;16.37;41.13
68141;BME280;54941;52.220;104.306;2022-09-17T01:54:01;96802.91;;;16.79;40.03
68141;BME280;54941;52.220;104.306;2022-09-17T01:56:33;96805.38;;;16.58;39.95
68141;BME280;54941;52.220;104.306;2022-09-17T01:59:05;96799.53;;;17.24;38.63
68141;BME280;54941;52.220;104.306;2022-09-17T02:01:37;96796.31;;;18.05;37.26
68141;BME280;54941;52.220;104.306;2022-09-17T02:04:09;96807.72;;;17.99;37.57
68141;BME280;54941;52.220;104.306;2022-09-17T02:06:39;96804.69;;;17.69;38.25
68141;BME280;54941;52.220;104.306;2022-09-17T02:09:10;96802.47;;;18.16;37.38
68141;BME280;54941;52.220;104.306;2022-09-17T02:11:40;96805.97;;;18.26;36.20
68141;BME280;54941;52.220;104.306;2022-09-17T02:14:11;96803.03;;;16.84;39.19
68141;BME280;54941;52.220;104.306;2022-09-17T02:16:43;96808.59;;;18.26;36.32
68141;BME280;54941;52.220;104.306;2022-09-17T02:19:14;96791.59;;;18.02;36.27
68141;BME280;54941;52.220;104.306;2022-09-17T02:21:47;96798.47;;;18.52;35.82
68141;BME280;54941;52.220;104.306;2022-09-17T02:24:21;96799.25;;;18.09;36.40
68141;BME280;54941;52.220;104.306;2022-09-17T02:26:53;96800.31;;;17.24;37.83
68141;BME280;54941;52.220;104.306;2022-09-17T02:29:25;96796.63;;;18.09;36.01
68141;BME280;54941;52.220;104.306;2022-09-17T02:31:56;96798.00;;;17.11;37.64
68141;BME280;54941;52.220;104.306;2022-09-17T02:34:23;96803.06;;;17.18;37.41
68141;BME280;54941;52.220;104.306;2022-09-17T02:36:50;96793.34;;;17.30;37.17
68141;BME280;54941;52.220;104.306;2022-09-17T02:39:16;96794.25;;;17.69;35.92
68141;BME280;54941;52.220;104.306;2022-09-17T02:41:50;96798.41;;;17.03;37.23
68141;BME280;54941;52.220;104.306;2022-09-17T02:44:26;96797.09;;;17.50;36.56
68141;BME280;54941;52.220;104.306;2022-09-17T02:47:20;96790.75;;;16.68;37.26
68141;BME280;54941;52.220;104.306;2022-09-17T02:50:01;96796.53;;;16.70;38.77
68141;BME280;54941;52.220;104.306;2022-09-17T02:52:53;96793.28;;;17.91;36.44
68141;BME280;54941;52.220;104.306;2022-09-17T02:55:27;96791.06;;;18.43;35.13
68141;BME280;54941;52.220;104.306;2022-09-17T02:58:01;96793.31;;;18.13;35.63
68141;BME280;54941;52.220;104.306;2022-09-17T03:00:30;96786.94;;;18.69;35.81
68141;BME280;54941;52.220;104.306;2022-09-17T03:03:00;96790.84;;;19.52;33.47
68141;BME280;54941;52.220;104.306;2022-09-17T03:05:27;96789.34;;;19.61;33.28
68141;BME280;54941;52.220;104.306;2022-09-17T03:07:54;96789.41;;;19.71;33.37
68141;BME280;54941;52.220;104.306;2022-09-17T03:10:21;96783.16;;;19.77;32.15
68141;BME280;54941;52.220;104.306;2022-09-17T03:12:48;96789.56;;;19.55;32.54
68141;BME280;54941;52.220;104.306;2022-09-17T03:15:15;96786.53;;;18.82;35.46
68141;BME280;54941;52.220;104.306;2022-09-17T03:17:42;96774.34;;;18.01;34.98
68141;BME280;54941;52.220;104.306;2022-09-17T03:20:10;96777.75;;;18.45;34.64
68141;BME280;54941;52.220;104.306;2022-09-17T03:22:36;96779.03;;;18.42;34.17
68141;BME280;54941;52.220;104.306;2022-09-17T03:25:03;96779.28;;;19.48;32.98
68141;BME280;54941;52.220;104.306;2022-09-17T03:27:30;96776.56;;;19.65;31.14
68141;BME280;54941;52.220;104.306;2022-09-17T03:29:56;96778.50;;;19.48;31.93
68141;BME280;54941;52.220;104.306;2022-09-17T03:32:25;96767.09;;;18.25;33.75
68141;BME280;54941;52.220;104.306;2022-09-17T03:34:52;96766.22;;;18.63;34.24
68141;BME280;54941;52.220;104.306;2022-09-17T03:37:20;96761.34;;;18.71;34.03
68141;BME280;54941;52.220;104.306;2022-09-17T03:39:46;96756.16;;;18.49;33.75
68141;BME280;54941;52.220;104.306;2022-09-17T03:42:12;96766.78;;;18.65;33.66
68141;BME280;54941;52.220;104.306;2022-09-17T03:44:39;96763.63;;;18.63;33.60
68141;BME280;54941;52.220;104.306;2022-09-17T03:47:05;96758.03;;;17.56;34.70
68141;BME280;54941;52.220;104.306;2022-09-17T03:49:31;96758.81;;;18.11;33.63
68141;BME280;54941;52.220;104.306;2022-09-17T03:51:58;96759.00;;;18.70;32.32
68141;BME280;54941;52.220;104.306;2022-09-17T03:54:26;96757.19;;;17.33;33.88
68141;BME280;54941;52.220;104.306;2022-09-17T03:56:52;96749.31;;;17.28;33.36
68141;BME280;54941;52.220;104.306;2022-09-17T03:59:19;96756.94;;;17.51;33.97
68141;BME280;54941;52.220;104.306;2022-09-17T04:01:45;96755.69;;;16.87;34.77
68141;BME280;54941;52.220;104.306;2022-09-17T04:04:12;96750.34;;;17.27;34.10
68141;BME280;54941;52.220;104.306;2022-09-17T04:06:38;96750.41;;;16.99;34.35
68141;BME280;54941;52.220;104.306;2022-09-17T04:09:04;96759.78;;;17.00;34.04
68141;BME280;54941;52.220;104.306;2022-09-17T04:11:32;96749.94;;;17.35;34.31
68141;BME280;54941;52.220;104.306;2022-09-17T04:13:58;96749.53;;;16.37;35.01
68141;BME280;54941;52.220;104.306;2022-09-17T04:16:25;96749.38;;;17.33;33.61
68141;BME280;54941;52.220;104.306;2022-09-17T04:18:51;96737.84;;;17.63;33.38
68141;BME280;54941;52.220;104.306;2022-09-17T04:21:18;96747.97;;;17.59;32.49
68141;BME280;54941;52.220;104.306;2022-09-17T04:23:44;96739.00;;;16.03;34.96
68141;BME280;54941;52.220;104.306;2022-09-17T04:26:10;96737.56;;;15.61;36.29
68141;BME280;54941;52.220;104.306;2022-09-17T04:28:38;96730.31;;;16.26;35.52
68141;BME280;54941;52.220;104.306;2022-09-17T04:31:04;96731.56;;;15.84;36.91
68141;BME280;54941;52.220;104.306;2022-09-17T04:33:31;96727.56;;;16.04;35.55
68141;BME280;54941;52.220;104.306;2022-09-17T04:35:57;96732.25;;;15.79;34.44
68141;BME280;54941;52.220;104.306;2022-09-17T04:38:24;96732.41;;;14.85;36.83
68141;BME280;54941;52.220;104.306;2022-09-17T04:40:50;96737.97;;;14.58;36.67
68141;BME280;54941;52.220;104.306;2022-09-17T04:43:17;96732.34;;;15.38;37.19
68141;BME280;54941;52.220;104.306;2022-09-17T04:45:46;96731.88;;;15.99;35.36
68141;BME280;54941;52.220;104.306;2022-09-17T04:48:12;96732.75;;;16.04;35.34
68141;BME280;54941;52.220;104.306;2022-09-17T04:50:39;96730.41;;;15.45;34.97
68141;BME280;54941;52.220;104.306;2022-09-17T04:53:05;96727.41;;;15.59;34.68
68141;BME280;54941;52.220;104.306;2022-09-17T04:55:32;96731.03;;;15.58;34.01
68141;BME280;54941;52.220;104.306;2022-09-17T04:57:59;96722.38;;;15.93;33.49
68141;BME280;54941;52.220;104.306;2022-09-17T05:00:26;96724.31;;;15.74;33.34
68141;BME280;54941;52.220;104.306;2022-09-17T05:02:54;96725.25;;;16.20;31.88
68141;BME280;54941;52.220;104.306;2022-09-17T05:05:21;96721.16;;;15.84;32.09
68141;BME280;54941;52.220;104.306;2022-09-17T05:07:47;96728.63;;;15.10;33.26
68141;BME280;54941;52.220;104.306;2022-09-17T05:10:15;96734.38;;;14.41;33.07
68141;BME280;54941;52.220;104.306;2022-09-17T05:12:47;96721.88;;;14.02;32.29
68141;BME280;54941;52.220;104.306;2022-09-17T05:15:13;96726.88;;;14.81;31.02
68141;BME280;54941;52.220;104.306;2022-09-17T05:17:40;96730.06;;;15.06;32.44
68141;BME280;54941;52.220;104.306;2022-09-17T05:20:08;96717.56;;;15.85;31.84
68141;BME280;54941;52.220;104.306;2022-09-17T05:22:34;96720.72;;;15.75;30.80
68141;BME280;54941;52.220;104.306;2022-09-17T05:25:01;96720.03;;;16.60;29.19
68141;BME280;54941;52.220;104.306;2022-09-17T05:27:29;96721.63;;;16.49;29.42
68141;BME280;54941;52.220;104.306;2022-09-17T05:29:55;96713.81;;;15.92;30.44
68141;BME280;54941;52.220;104.306;2022-09-17T05:32:22;96723.53;;;15.16;31.11
68141;BME280;54941;52.220;104.306;2022-09-17T05:34:48;96719.13;;;15.28;31.43
68141;BME280;54941;52.220;104.306;2022-09-17T05:37:16;96712.00;;;14.88;32.09
68141;BME280;54941;52.220;104.306;2022-09-17T05:39:42;96703.34;;;15.64;32.25
68141;BME280;54941;52.220;104.306;2022-09-17T05:42:08;96710.66;;;15.21;32.56
68141;BME280;54941;52.220;104.306;2022-09-17T05:44:35;96705.59;;;15.49;31.83
68141;BME280;54941;52.220;104.306;2022-09-17T05:47:01;96700.63;;;15.24;32.46
68141;BME280;54941;52.220;104.306;2022-09-17T05:49:27;96701.47;;;14.42;34.28
68141;BME280;54941;52.220;104.306;2022-09-17T05:51:54;96707.97;;;14.33;34.79
68141;BME280;54941;52.220;104.306;2022-09-17T05:54:22;96703.72;;;14.20;35.03
68141;BME280;54941;52.220;104.306;2022-09-17T05:56:52;96696.22;;;14.00;35.06
68141;BME280;54941;52.220;104.306;2022-09-17T05:59:19;96691.16;;;14.05;35.68
68141;BME280;54941;52.220;104.306;2022-09-17T06:01:46;96691.72;;;14.07;35.48
68141;BME280;54941;52.220;104.306;2022-09-17T06:04:12;96686.19;;;14.04;35.26
68141;BME280;54941;52.220;104.306;2022-09-17T06:06:39;96686.97;;;14.64;34.42
68141;BME280;54941;52.220;104.306;2022-09-17T06:09:05;96681.78;;;14.64;34.00
68141;BME280;54941;52.220;104.306;2022-09-17T06:11:33;96689.56;;;14.04;34.43
68141;BME280;54941;52.220;104.306;2022-09-17T06:14:00;96687.84;;;13.98;34.53
68141;BME280;54941;52.220;104.306;2022-09-17T06:16:26;96685.13;;;14.23;34.39
68141;BME280;54941;52.220;104.306;2022-09-17T06:18:53;96679.28;;;14.99;33.12
68141;BME280;54941;52.220;104.306;2022-09-17T06:21:19;96682.31;;;15.42;32.75
68141;BME280;54941;52.220;104.306;2022-09-17T06:23:45;96681.41;;;15.02;31.54
68141;BME280;54941;52.220;104.306;2022-09-17T06:26:12;96674.81;;;14.65;31.89
68141;BME280;54941;52.220;104.306;2022-09-17T06:28:40;96672.63;;;15.03;31.93
68141;BME280;54941;52.220;104.306;2022-09-17T06:31:07;96679.16;;;15.17;31.84
68141;BME280;54941;52.220;104.306;2022-09-17T06:33:34;96671.63;;;15.50;31.49
68141;BME280;54941;52.220;104.306;2022-09-17T06:36:03;96678.56;;;14.80;32.71
68141;BME280;54941;52.220;104.306;2022-09-17T06:38:31;96673.53;;;15.55;32.30
68141;BME280;54941;52.220;104.306;2022-09-17T06:40:57;96677.13;;;15.54;31.56
68141;BME280;54941;52.220;104.306;2022-09-17T06:43:24;96664.56;;;15.74;31.78
68141;BME280;54941;52.220;104.306;2022-09-17T06:45:53;96673.13;;;15.75;31.19
68141;BME280;54941;52.220;104.306;2022-09-17T06:48:19;96672.16;;;15.41;31.49
68141;BME280;54941;52.220;104.306;2022-09-17T06:50:46;96666.28;;;14.99;32.23
68141;BME280;54941;52.220;104.306;2022-09-17T06:53:13;96683.22;;;15.01;32.54
68141;BME280;54941;52.220;104.306;2022-09-17T06:55:39;96664.72;;;15.33;32.66
68141;BME280;54941;52.220;104.306;2022-09-17T06:58:06;96668.66;;;15.24;32.66
68141;BME280;54941;52.220;104.306;2022-09-17T07:00:32;96672.63;;;15.15;32.33
68141;BME280;54941;52.220;104.306;2022-09-17T07:03:00;96667.31;;;15.44;32.19
68141;BME280;54941;52.220;104.306;2022-09-17T07:05:27;96673.97;;;15.29;32.11
68141;BME280;54941;52.220;104.306;2022-09-17T07:07:55;96666.19;;;15.29;31.68
68141;BME280;54941;52.220;104.306;2022-09-17T07:10:22;96666.19;;;15.40;32.23
68141;BME280;54941;52.220;104.306;2022-09-17T07:12:48;96667.19;;;15.16;32.25
68141;BME280;54941;52.220;104.306;2022-09-17T07:15:15;96668.63;;;14.77;32.71
68141;BME280;54941;52.220;104.306;2022-09-17T07:17:41;96673.25;;;14.75;33.48
68141;BME280;54941;52.220;104.306;2022-09-17T07:20:10;96668.13;;;14.57;33.14
68141;BME280;54941;52.220;104.306;2022-09-17T07:22:37;96662.88;;;14.75;33.06
68141;BME280;54941;52.220;104.306;2022-09-17T07:25:10;96664.56;;;14.93;32.28
68141;BME280;54941;52.220;104.306;2022-09-17T07:27:37;96658.19;;;15.19;32.67
68141;BME280;54941;52.220;104.306;2022-09-17T07:30:04;96665.25;;;14.77;32.32
68141;BME280;54941;52.220;104.306;2022-09-17T07:32:31;96665.38;;;14.82;32.49
68141;BME280;54941;52.220;104.306;2022-09-17T07:34:57;96666.25;;;14.34;32.27
68141;BME280;54941;52.220;104.306;2022-09-17T07:37:25;96666.91;;;14.59;32.31
68141;BME280;54941;52.220;104.306;2022-09-17T07:39:51;96658.16;;;14.84;31.39
68141;BME280;54941;52.220;104.306;2022-09-17T07:42:18;96667.88;;;14.88;31.81
68141;BME280;54941;52.220;104.306;2022-09-17T07:44:44;96663.34;;;14.84;31.95
68141;BME280;54941;52.220;104.306;2022-09-17T07:47:10;96661.44;;;14.91;31.13
68141;BME280;54941;52.220;104.306;2022-09-17T07:49:37;96661.91;;;14.46;32.21
68141;BME280;54941;52.220;104.306;2022-09-17T07:52:05;96657.53;;;14.58;32.14
68141;BME280;54941;52.220;104.306;2022-09-17T07:54:33;96659.34;;;14.58;32.24
68141;BME280;54941;52.220;104.306;2022-09-17T07:57:00;96668.59;;;14.54;31.93
68141;BME280;54941;52.220;104.306;2022-09-17T07:59:26;96664.81;;;14.38;32.53
68141;BME280;54941;52.220;104.306;2022-09-17T08:01:52;96678.41;;;14.34;32.44
68141;BME280;54941;52.220;104.306;2022-09-17T08:04:19;96675.44;;;14.19;33.30
68141;BME280;54941;52.220;104.306;2022-09-17T08:06:45;96667.81;;;14.05;32.60
68141;BME280;54941;52.220;104.306;2022-09-17T08:09:12;96677.97;;;14.07;32.43
68141;BME280;54941;52.220;104.306;2022-09-17T08:11:41;96673.53;;;14.26;32.29
68141;BME280;54941;52.220;104.306;2022-09-17T08:14:09;96672.44;;;14.33;32.64
68141;BME280;54941;52.220;104.306;2022-09-17T08:16:36;96671.06;;;14.31;32.67
68141;BME280;54941;52.220;104.306;2022-09-17T08:19:02;96674.19;;;14.39;32.20
68141;BME280;54941;52.220;104.306;2022-09-17T08:21:30;96672.63;;;14.50;31.87
68141;BME280;54941;52.220;104.306;2022-09-17T08:23:56;96679.50;;;14.56;32.22
68141;BME280;54941;52.220;104.306;2022-09-17T08:26:23;96685.69;;;14.43;31.37
68141;BME280;54941;52.220;104.306;2022-09-17T08:28:53;96677.94;;;14.25;31.81
68141;BME280;54941;52.220;104.306;2022-09-17T08:31:20;96681.81;;;14.34;32.34
68141;BME280;54941;52.220;104.306;2022-09-17T08:33:48;96689.56;;;14.04;32.12
68141;BME280;54941;52.220;104.306;2022-09-17T08:36:16;96681.72;;;14.11;32.21
68141;BME280;54941;52.220;104.306;2022-09-17T08:38:44;96683.97;;;14.19;32.61
68141;BME280;54941;52.220;104.306;2022-09-17T08:41:22;96682.28;;;14.13;31.48
68141;BME280;54941;52.220;104.306;2022-09-17T08:43:58;96679.06;;;13.99;32.16
68141;BME280;54941;52.220;104.306;2022-09-17T08:46:28;96677.38;;;14.05;32.12
68141;BME280;54941;52.220;104.306;2022-09-17T08:49:14;96682.47;;;13.82;32.23
68141;BME280;54941;52.220;104.306;2022-09-17T08:51:48;96683.13;;;13.77;32.72
68141;BME280;54941;52.220;104.306;2022-09-17T08:54:26;96684.72;;;13.78;33.12
68141;BME280;54941;52.220;104.306;2022-09-17T08:57:05;96687.84;;;13.80;32.87
68141;BME280;54941;52.220;104.306;2022-09-17T08:59:40;96689.53;;;13.93;33.04
68141;BME280;54941;52.220;104.306;2022-09-17T09:02:13;96688.38;;;13.71;33.39
68141;BME280;54941;52.220;104.306;2022-09-17T09:04:57;96689.88;;;13.78;33.38
68141;BME280;54941;52.220;104.306;2022-09-17T09:07:29;96687.63;;;13.63;33.93
68141;BME280;54941;52.220;104.306;2022-09-17T09:10:05;96695.28;;;13.58;33.84
68141;BME280;54941;52.220;104.306;2022-09-17T09:12:37;96690.81;;;13.65;34.22
68141;BME280;54941;52.220;104.306;2022-09-17T09:15:14;96687.88;;;13.62;34.28
68141;BME280;54941;52.220;104.306;2022-09-17T09:17:45;96685.44;;;13.67;33.73
68141;BME280;54941;52.220;104.306;2022-09-17T09:20:16;96698.88;;;13.76;33.89
68141;BME280;54941;52.220;104.306;2022-09-17T09:22:48;96699.13;;;13.49;33.90
68141;BME280;54941;52.220;104.306;2022-09-17T09:25:20;96690.91;;;13.34;34.46
68141;BME280;54941;52.220;104.306;2022-09-17T09:27:57;96692.75;;;13.34;34.41
68141;BME280;54941;52.220;104.306;2022-09-17T09:30:31;96691.25;;;13.44;34.42
68141;BME280;54941;52.220;104.306;2022-09-17T09:33:10;96695.63;;;13.44;34.50
68141;BME280;54941;52.220;104.306;2022-09-17T09:35:40;96700.06;;;13.37;35.07
68141;BME280;54941;52.220;104.306;2022-09-17T09:38:11;96706.31;;;13.29;34.80
68141;BME280;54941;52.220;104.306;2022-09-17T09:40:43;96707.69;;;13.32;34.71
68141;BME280;54941;52.220;104.306;2022-09-17T09:43:16;96695.81;;;13.42;33.89
68141;BME280;54941;52.220;104.306;2022-09-17T09:46:00;96708.97;;;13.23;34.03
68141;BME280;54941;52.220;104.306;2022-09-17T09:48:34;96703.44;;;13.19;33.89
68141;BME280;54941;52.220;104.306;2022-09-17T09:51:12;96693.66;;;13.21;33.55
68141;BME280;54941;52.220;104.306;2022-09-17T09:53:50;96707.50;;;13.27;33.71
68141;BME280;54941;52.220;104.306;2022-09-17T09:56:31;96716.13;;;13.21;34.17
68141;BME280;54941;52.220;104.306;2022-09-17T09:58:58;96718.09;;;13.25;34.00
68141;BME280;54941;52.220;104.306;2022-09-17T10:01:27;96711.13;;;13.26;34.20
68141;BME280;54941;52.220;104.306;2022-09-17T10:03:55;96713.34;;;13.22;34.06
68141;BME280;54941;52.220;104.306;2022-09-17T10:06:21;96716.38;;;13.19;33.88
68141;BME280;54941;52.220;104.306;2022-09-17T10:09:08;96718.00;;;13.13;34.07
68141;BME280;54941;52.220;104.306;2022-09-17T10:11:35;96718.00;;;13.13;34.63
68141;BME280;54941;52.220;104.306;2022-09-17T10:14:18;96725.19;;;13.11;34.62
68141;BME280;54941;52.220;104.306;2022-09-17T10:16:48;96719.44;;;13.03;34.55
68141;BME280;54941;52.220;104.306;2022-09-17T10:19:19;96721.44;;;13.01;34.88
68141;BME280;54941;52.220;104.306;2022-09-17T10:21:46;96722.53;;;12.93;34.83
68141;BME280;54941;52.220;104.306;2022-09-17T10:24:21;96728.50;;;12.87;35.08
68141;BME280;54941;52.220;104.306;2022-09-17T10:26:50;96736.53;;;12.79;35.13
68141;BME280;54941;52.220;104.306;2022-09-17T10:29:18;96730.19;;;12.75;35.30
68141;BME280;54941;52.220;104.306;2022-09-17T10:31:48;96730.84;;;12.71;35.43
68141;BME280;54941;52.220;104.306;2022-09-17T10:34:19;96740.19;;;12.65;35.63
68141;BME280;54941;52.220;104.306;2022-09-17T10:36:46;96744.00;;;12.62;35.65
68141;BME280;54941;52.220;104.306;2022-09-17T10:39:31;96745.84;;;12.55;35.76
68141;BME280;54941;52.220;104.306;2022-09-17T10:41:59;96744.84;;;12.50;35.83
68141;BME280;54941;52.220;104.306;2022-09-17T10:44:27;96742.13;;;12.45;36.09
68141;BME280;54941;52.220;104.306;2022-09-17T10:47:01;96738.19;;;12.36;36.32
68141;BME280;54941;52.220;104.306;2022-09-17T10:49:35;96744.97;;;12.30;37.04
68141;BME280;54941;52.220;104.306;2022-09-17T10:52:03;96749.19;;;12.18;36.78
68141;BME280;54941;52.220;104.306;2022-09-17T10:54:54;96744.06;;;12.11;37.30
68141;BME280;54941;52.220;104.306;2022-09-17T10:57:34;96753.03;;;12.02;37.56
68141;BME280;54941;52.220;104.306;2022-09-17T11:00:10;96757.84;;;11.92;37.79
68141;BME280;54941;52.220;104.306;2022-09-17T11:06:18;96761.84;;;11.82;38.21
68141;BME280;54941;52.220;104.306;2022-09-17T11:08:58;96767.59;;;11.77;38.03
68141;BME280;54941;52.220;104.306;2022-09-17T11:11:34;96760.84;;;11.69;38.28
68141;BME280;54941;52.220;104.306;2022-09-17T11:14:12;96772.34;;;11.60;38.39
68141;BME280;54941;52.220;104.306;2022-09-17T11:16:48;96766.59;;;11.58;38.53
68141;BME280;54941;52.220;104.306;2022-09-17T11:19:29;96771.56;;;11.53;38.67
68141;BME280;54941;52.220;104.306;2022-09-17T11:22:05;96786.28;;;11.46;38.90
68141;BME280;54941;52.220;104.306;2022-09-17T11:24:45;96786.69;;;11.43;39.11
68141;BME280;54941;52.220;104.306;2022-09-17T11:27:25;96788.88;;;11.33;39.11
68141;BME280;54941;52.220;104.306;2022-09-17T11:30:03;96788.06;;;11.33;39.38
68141;BME280;54941;52.220;104.306;2022-09-17T11:35:35;96796.59;;;11.13;39.76
68141;BME280;54941;52.220;104.306;2022-09-17T11:38:09;96791.25;;;11.08;39.33
68141;BME280;54941;52.220;104.306;2022-09-17T11:40:41;96792.22;;;11.01;39.73
68141;BME280;54941;52.220;104.306;2022-09-17T11:43:16;96801.34;;;10.97;40.04
68141;BME280;54941;52.220;104.306;2022-09-17T11:45:54;96804.28;;;10.87;40.92
68141;BME280;54941;52.220;104.306;2022-09-17T11:48:26;96803.69;;;10.79;41.22
68141;BME280;54941;52.220;104.306;2022-09-17T11:50:59;96812.00;;;10.74;41.23
68141;BME280;54941;52.220;104.306;2022-09-17T11:53:30;96813.38;;;10.63;41.36
68141;BME280;54941;52.220;104.306;2022-09-17T11:55:59;96818.06;;;10.53;41.01
68141;BME280;54941;52.220;104.306;2022-09-17T11:58:31;96819.09;;;10.52;41.55
68141;BME280;54941;52.220;104.306;2022-09-17T12:01:03;96815.47;;;10.47;42.16
68141;BME280;54941;52.220;104.306;2022-09-17T12:03:35;96823.72;;;10.22;45.01
68141;BME280;54941;52.220;104.306;2022-09-17T12:06:10;96831.13;;;10.04;46.43
68141;BME280;54941;52.220;104.306;2022-09-17T12:08:43;96824.84;;;9.79;46.81
68141;BME280;54941;52.220;104.306;2022-09-17T12:11:16;96837.56;;;9.59;47.34
68141;BME280;54941;52.220;104.306;2022-09-17T12:13:46;96830.97;;;9.29;49.82
68141;BME280;54941;52.220;104.306;2022-09-17T12:16:17;96845.25;;;9.10;49.90
68141;BME280;54941;52.220;104.306;2022-09-17T12:18:52;96848.34;;;8.85;51.96
68141;BME280;54941;52.220;104.306;2022-09-17T12:21:30;96853.22;;;8.79;51.76
68141;BME280;54941;52.220;104.306;2022-09-17T12:24:06;96846.44;;;8.72;50.93
68141;BME280;54941;52.220;104.306;2022-09-17T12:26:52;96861.25;;;8.55;52.57
68141;BME280;54941;52.220;104.306;2022-09-17T12:29:33;96860.22;;;8.35;53.52
68141;BME280;54941;52.220;104.306;2022-09-17T12:32:12;96862.06;;;8.26;52.51
68141;BME280;54941;52.220;104.306;2022-09-17T12:34:51;96864.72;;;8.18;53.46
68141;BME280;54941;52.220;104.306;2022-09-17T12:37:25;96871.38;;;8.13;55.52
68141;BME280;54941;52.220;104.306;2022-09-17T12:40:06;96867.19;;;8.12;54.07
68141;BME280;54941;52.220;104.306;2022-09-17T12:42:48;96882.84;;;8.02;56.12
68141;BME280;54941;52.220;104.306;2022-09-17T12:45:28;96877.59;;;7.81;55.79
68141;BME280;54941;52.220;104.306;2022-09-17T12:48:15;96883.78;;;7.72;56.03
68141;BME280;54941;52.220;104.306;2022-09-17T12:50:55;96886.59;;;7.62;56.30
68141;BME280;54941;52.220;104.306;2022-09-17T12:53:32;96896.81;;;7.48;57.90
68141;BME280;54941;52.220;104.306;2022-09-17T12:56:15;96900.28;;;7.32;59.02
68141;BME280;54941;52.220;104.306;2022-09-17T12:58:55;96898.06;;;7.29;58.10
68141;BME280;54941;52.220;104.306;2022-09-17T13:01:30;96899.72;;;7.22;58.78
68141;BME280;54941;52.220;104.306;2022-09-17T13:04:10;96899.03;;;7.05;59.17
68141;BME280;54941;52.220;104.306;2022-09-17T13:06:57;96904.69;;;6.93;60.34
68141;BME280;54941;52.220;104.306;2022-09-17T13:12:29;96910.50;;;6.87;60.72
68141;BME280;54941;52.220;104.306;2022-09-17T13:17:47;96916.66;;;7.00;59.42